createdAt,value
2019-03-20T00:02:23.558Z,17.53
2019-03-20T00:04:56.235Z,19.47
2019-03-20T00:07:28.015Z,17.83
2019-03-20T00:09:58.468Z,16.47
2019-03-20T00:12:30.407Z,18.90
2019-03-20T00:15:01.430Z,18.70
2019-03-20T00:17:31.916Z,14.13
2019-03-20T00:20:07.744Z,13.03
2019-03-20T00:22:39.581Z,16.20
2019-03-20T00:25:11.453Z,14.37
2019-03-20T00:27:43.469Z,20.33
2019-03-20T00:30:18.174Z,16.43
2019-03-20T00:32:48.753Z,14.17
2019-03-20T00:35:19.945Z,13.57
2019-03-20T00:37:50.408Z,11.77
2019-03-20T00:40:21.088Z,13.43
2019-03-20T00:42:53.410Z,13.57
2019-03-20T00:45:24.486Z,15.60
2019-03-20T00:47:55.741Z,17.00
2019-03-20T00:50:27.373Z,16.23
2019-03-20T00:52:59.022Z,14.07
2019-03-20T00:55:29.519Z,16.13
2019-03-20T00:58:01.843Z,13.90
2019-03-20T01:00:35.579Z,16.93
2019-03-20T01:03:10.302Z,18.83
2019-03-20T01:05:41.031Z,16.23
2019-03-20T01:08:15.422Z,15.53
2019-03-20T01:10:48.887Z,12.73
2019-03-20T01:13:20.896Z,15.43
2019-03-20T01:15:51.385Z,19.00
2019-03-20T01:18:22.554Z,16.30
2019-03-20T01:20:53.120Z,15.63
2019-03-20T01:23:23.581Z,18.27
2019-03-20T01:25:56.654Z,16.93
2019-03-20T01:28:27.916Z,15.83
2019-03-20T01:30:59.981Z,15.90
2019-03-20T01:33:30.475Z,15.23
2019-03-20T01:36:01.800Z,20.10
2019-03-20T01:38:32.357Z,11.40
2019-03-20T01:41:02.869Z,12.77
2019-03-20T01:43:34.455Z,15.83
2019-03-20T01:46:07.262Z,14.63
2019-03-20T01:48:37.751Z,16.93
2019-03-20T01:51:21.087Z,14.60
2019-03-20T01:53:51.538Z,15.43
2019-03-20T01:56:22.991Z,13.30
2019-03-20T01:58:53.439Z,16.40
2019-03-20T02:01:24.086Z,11.67
2019-03-20T02:03:54.549Z,12.37
2019-03-20T02:06:25.033Z,14.10
2019-03-20T02:08:58.079Z,16.87
2019-03-20T02:11:28.568Z,16.80
2019-03-20T02:14:00.064Z,17.90
2019-03-20T02:16:30.563Z,13.63
2019-03-20T02:19:01.031Z,17.47
2019-03-20T02:21:31.961Z,15.60
2019-03-20T02:24:02.425Z,14.27
2019-03-20T02:26:34.485Z,11.87
2019-03-20T02:29:04.956Z,17.23
2019-03-20T02:31:35.441Z,15.70
2019-03-20T02:34:05.970Z,14.27
2019-03-20T02:36:38.102Z,15.40
2019-03-20T02:39:10.114Z,14.93
2019-03-20T02:41:42.472Z,14.50
2019-03-20T02:44:16.382Z,16.00
2019-03-20T02:46:48.472Z,17.30
2019-03-20T02:49:18.974Z,16.67
2019-03-20T02:51:49.468Z,17.20
2019-03-20T02:54:23.528Z,15.07
2019-03-20T02:56:54.058Z,16.97
2019-03-20T02:59:26.204Z,14.80
2019-03-20T03:01:58.297Z,16.77
2019-03-20T03:04:32.221Z,16.13
2019-03-20T03:07:02.702Z,14.67
2019-03-20T03:09:33.201Z,17.00
2019-03-20T03:12:04.263Z,14.43
2019-03-20T03:14:34.718Z,13.03
2019-03-20T03:17:05.363Z,14.17
2019-03-20T03:19:35.819Z,18.93
2019-03-20T03:22:08.162Z,15.70
2019-03-20T03:24:41.748Z,14.23
2019-03-20T03:27:12.228Z,14.30
2019-03-20T03:29:44.893Z,13.00
2019-03-20T03:32:15.401Z,12.83
2019-03-20T03:34:45.868Z,16.53
2019-03-20T03:37:16.927Z,14.90
2019-03-20T03:39:48.519Z,16.13
2019-03-20T03:42:20.607Z,16.50
2019-03-20T03:44:51.128Z,17.40
2019-03-20T03:47:23.261Z,15.13
2019-03-20T03:49:56.105Z,14.43
2019-03-20T03:52:27.818Z,12.13
2019-03-20T03:54:58.566Z,14.10
2019-03-20T03:57:31.221Z,15.13
2019-03-20T04:00:02.572Z,14.03
2019-03-20T04:02:33.102Z,11.30
2019-03-20T04:05:04.278Z,14.57
2019-03-20T04:07:36.560Z,12.43
2019-03-20T04:10:12.113Z,11.33
2019-03-20T04:12:45.776Z,12.77
2019-03-20T04:15:17.338Z,17.83
2019-03-20T04:17:49.456Z,15.90
2019-03-20T04:20:22.699Z,14.73
2019-03-20T04:22:53.192Z,12.10
2019-03-20T04:25:24.777Z,14.63
2019-03-20T04:27:56.920Z,12.13
2019-03-20T04:30:28.964Z,14.23
2019-03-20T04:33:00.186Z,11.90
2019-03-20T04:35:31.257Z,12.13
2019-03-20T04:38:01.724Z,13.43
2019-03-20T04:40:32.875Z,14.37
2019-03-20T04:43:03.355Z,10.83
2019-03-20T04:45:33.873Z,12.70
2019-03-20T04:48:05.875Z,12.90
2019-03-20T04:50:40.712Z,16.40
2019-03-20T04:53:12.839Z,14.20
2019-03-20T04:55:48.013Z,10.33
2019-03-20T04:58:20.099Z,15.60
2019-03-20T05:00:50.551Z,13.47
2019-03-20T05:03:21.714Z,15.20
2019-03-20T05:05:52.182Z,13.60
2019-03-20T05:08:26.786Z,13.70
2019-03-20T05:10:57.905Z,9.93
2019-03-20T05:13:29.178Z,15.97
2019-03-20T05:16:00.560Z,12.73
2019-03-20T05:18:33.307Z,13.30
2019-03-20T05:21:04.464Z,15.03
2019-03-20T05:23:36.470Z,11.93
2019-03-20T05:26:08.514Z,11.20
2019-03-20T05:28:39.837Z,13.73
2019-03-20T05:31:12.100Z,17.50
2019-03-20T05:33:43.225Z,13.53
2019-03-20T05:36:15.896Z,16.00
2019-03-20T05:38:46.392Z,11.80
2019-03-20T05:41:16.884Z,18.73
2019-03-20T05:43:47.386Z,13.43
2019-03-20T05:46:17.856Z,26.60
2019-03-20T05:48:49.008Z,15.67
2019-03-20T05:51:19.500Z,13.10
2019-03-20T05:53:50.650Z,14.07
2019-03-20T05:56:21.778Z,13.53
2019-03-20T05:58:52.268Z,9.50
2019-03-20T06:01:25.996Z,15.37
2019-03-20T06:03:56.487Z,12.73
2019-03-20T06:06:27.103Z,13.97
2019-03-20T06:08:59.263Z,11.70
2019-03-20T06:11:30.140Z,15.70
2019-03-20T06:14:02.332Z,16.10
2019-03-20T06:16:41.304Z,20.70
2019-03-20T06:19:13.307Z,16.00
2019-03-20T06:21:43.813Z,12.40
2019-03-20T06:24:15.711Z,12.73
2019-03-20T06:26:46.886Z,15.13
2019-03-20T06:29:20.103Z,15.47
2019-03-20T06:31:50.228Z,17.40
2019-03-20T06:34:21.988Z,13.63
2019-03-20T06:36:52.702Z,12.93
2019-03-20T06:39:23.331Z,12.10
2019-03-20T06:41:53.841Z,17.47
2019-03-20T06:44:25.063Z,13.37
2019-03-20T06:46:55.545Z,15.20
2019-03-20T06:49:26.009Z,21.70
2019-03-20T06:51:59.528Z,13.93
2019-03-20T06:54:30.015Z,13.83
2019-03-20T06:57:00.481Z,16.70
2019-03-20T06:59:35.669Z,18.60
2019-03-20T07:02:09.647Z,12.27
2019-03-20T07:04:53.883Z,20.10
2019-03-20T07:07:43.562Z,16.37
2019-03-20T07:10:16.232Z,15.50
2019-03-20T07:12:46.713Z,21.83
2019-03-20T07:15:18.761Z,24.93
2019-03-20T07:17:49.275Z,20.77
2019-03-20T07:20:19.768Z,18.17
2019-03-20T07:22:50.224Z,14.40
2019-03-20T07:25:20.721Z,15.53
2019-03-20T07:27:52.721Z,20.70
2019-03-20T07:30:23.892Z,13.47
2019-03-20T07:32:54.357Z,16.00
2019-03-20T07:35:24.853Z,11.17
2019-03-20T07:37:56.424Z,7.93
2019-03-20T07:40:28.621Z,4.93
2019-03-20T07:43:08.136Z,6.40
2019-03-20T07:45:31.988Z,3.90
2019-03-20T07:48:03.261Z,3.00
2019-03-20T07:50:35.826Z,8.13
2019-03-20T07:53:06.285Z,5.33
2019-03-20T07:55:38.017Z,5.67
2019-03-20T07:58:08.559Z,4.83
2019-03-20T18:02:30.296Z,10.60
2019-03-20T18:05:02.634Z,11.10
2019-03-20T18:07:32.989Z,12.27
2019-03-20T18:10:03.509Z,13.20
2019-03-20T18:12:35.205Z,10.27
2019-03-20T18:15:10.830Z,14.87
2019-03-20T18:17:41.377Z,11.83
2019-03-20T18:20:15.261Z,55.40
2019-03-20T18:22:45.748Z,38.37
2019-03-20T18:25:16.443Z,11.27
2019-03-20T18:27:47.552Z,11.03
2019-03-20T18:30:36.159Z,11.00
2019-03-20T18:33:07.462Z,9.27
2019-03-20T18:35:38.085Z,9.30
2019-03-20T18:38:09.093Z,11.33
2019-03-20T18:40:39.589Z,11.27
2019-03-20T18:43:10.068Z,28.57
2019-03-20T18:45:40.624Z,19.00
2019-03-20T18:48:11.121Z,12.50
2019-03-20T18:50:41.673Z,15.67
2019-03-20T18:53:12.186Z,13.80
2019-03-20T18:55:42.646Z,12.77
2019-03-20T18:58:13.186Z,12.67
2019-03-20T19:00:43.647Z,12.00
2019-03-20T19:03:22.402Z,16.87
2019-03-20T19:06:09.605Z,15.40
2019-03-20T19:08:40.646Z,17.23
2019-03-20T19:11:11.247Z,14.57
2019-03-20T19:13:41.793Z,12.07
2019-03-20T19:16:12.466Z,14.90
2019-03-20T19:18:42.959Z,12.83
2019-03-20T19:21:13.502Z,18.70
2019-03-20T19:23:44.127Z,16.63
2019-03-20T19:26:14.585Z,20.73
2019-03-20T19:28:45.085Z,29.67
2019-03-20T19:31:15.540Z,22.90
2019-03-20T19:33:46.042Z,16.57
2019-03-20T19:36:16.502Z,17.37
2019-03-20T19:38:47.023Z,18.93
2019-03-20T19:41:18.012Z,13.80
2019-03-20T19:43:49.531Z,15.87
2019-03-20T19:46:19.993Z,18.27
2019-03-20T19:48:50.520Z,17.57
2019-03-20T19:51:20.985Z,21.57
2019-03-20T19:53:51.490Z,15.50
2019-03-20T19:56:21.980Z,28.17
2019-03-20T19:58:52.443Z,30.83
2019-03-20T20:01:22.945Z,18.60
2019-03-20T20:03:53.442Z,47.97
2019-03-20T20:06:24.295Z,49.90
2019-03-20T20:08:54.790Z,95.00
2019-03-20T20:11:25.256Z,85.93
2019-03-20T20:13:55.779Z,47.83
2019-03-20T20:16:26.244Z,24.07
2019-03-20T20:18:56.748Z,24.87
2019-03-20T20:21:27.209Z,21.80
2019-03-20T20:23:57.761Z,17.80
2019-03-20T20:26:28.262Z,18.43
2019-03-20T20:28:58.806Z,19.37
2019-03-20T20:31:29.304Z,25.20
2019-03-20T20:33:59.833Z,18.40
2019-03-20T20:36:30.394Z,19.17
2019-03-20T20:39:00.864Z,91.40
2019-03-20T20:41:31.348Z,81.27
2019-03-20T20:44:01.871Z,104.43
2019-03-20T20:46:32.361Z,47.87
2019-03-20T20:49:02.875Z,26.40
2019-03-20T20:51:33.341Z,22.77
2019-03-20T20:54:03.850Z,29.40
2019-03-20T20:56:34.306Z,17.77
2019-03-20T20:59:04.861Z,23.60
2019-03-20T21:01:35.325Z,24.63
2019-03-20T21:04:05.906Z,21.70
2019-03-20T21:06:36.412Z,17.80
2019-03-20T21:09:08.662Z,18.50
2019-03-20T21:11:39.122Z,20.13
2019-03-20T21:14:09.640Z,16.97
2019-03-20T21:16:40.210Z,18.13
2019-03-20T21:19:36.139Z,16.27
2019-03-20T21:22:32.455Z,16.73
2019-03-20T21:25:02.914Z,17.80
2019-03-20T21:28:14.249Z,14.57
2019-03-20T21:30:53.467Z,18.60
2019-03-20T21:34:18.417Z,14.90
2019-03-20T21:37:45.145Z,14.53
2019-03-20T21:40:17.116Z,15.27
2019-03-20T21:43:34.511Z,16.67
2019-03-20T21:46:18.348Z,13.73
2019-03-20T21:48:48.855Z,16.13
2019-03-20T21:51:19.588Z,21.80
2019-03-20T21:54:15.651Z,14.93
2019-03-20T21:57:21.582Z,16.40
2019-03-20T22:00:38.858Z,17.03
2019-03-20T22:03:09.329Z,17.13
2019-03-20T22:06:05.500Z,14.23
2019-03-20T22:08:35.958Z,14.67
2019-03-20T22:11:34.013Z,17.40
2019-03-20T22:14:11.693Z,13.20
2019-03-20T22:17:25.608Z,17.60
2019-03-20T22:20:24.624Z,17.27
2019-03-20T22:23:23.708Z,19.53
2019-03-20T22:26:25.929Z,15.50
2019-03-20T22:29:23.981Z,17.40
2019-03-20T22:32:30.895Z,17.90
2019-03-20T22:35:30.423Z,14.60
2019-03-20T22:38:04.036Z,16.53
2019-03-20T22:41:12.304Z,15.17
2019-03-20T22:43:56.585Z,12.60
2019-03-20T22:46:49.802Z,14.33
2019-03-20T22:49:36.984Z,19.97
2019-03-20T22:52:21.198Z,16.90
2019-03-20T22:55:33.611Z,17.43
2019-03-20T22:58:34.259Z,14.23
2019-03-20T23:01:04.862Z,18.23
2019-03-20T23:03:40.066Z,21.70
2019-03-20T23:06:10.555Z,20.80
2019-03-20T23:08:41.011Z,17.47
2019-03-20T23:11:11.504Z,20.03
2019-03-20T23:13:42.067Z,20.03
2019-03-20T23:16:16.236Z,21.17
2019-03-20T23:18:46.695Z,18.10
2019-03-20T23:21:17.189Z,21.93
2019-03-20T23:23:47.735Z,22.47
2019-03-20T23:26:18.219Z,20.77
2019-03-20T23:28:48.677Z,21.53
2019-03-20T23:31:19.182Z,17.67
2019-03-20T23:33:49.689Z,16.87
2019-03-20T23:36:20.225Z,17.30
2019-03-20T23:38:50.767Z,17.90
2019-03-20T23:41:21.228Z,18.63
2019-03-20T23:43:53.171Z,19.97
2019-03-20T23:46:23.912Z,17.50
2019-03-20T23:49:05.021Z,18.30
2019-03-20T23:51:37.214Z,17.77
2019-03-20T23:54:08.721Z,14.70
2019-03-20T23:56:42.033Z,16.53
2019-03-20T23:59:12.436Z,14.47
